createdAt,value
2019-03-18T00:04:01.078Z,3.33
2019-03-18T00:09:08.268Z,2.47
2019-03-18T00:14:15.502Z,2.53
2019-03-18T00:19:21.851Z,3.60
2019-03-18T00:24:27.690Z,3.17
2019-03-18T00:29:33.097Z,3.07
2019-03-18T00:34:40.248Z,3.77
2019-03-18T00:39:47.819Z,4.03
2019-03-18T00:44:53.246Z,3.20
2019-03-18T00:50:01.052Z,3.57
2019-03-18T00:55:09.679Z,3.53
2019-03-18T01:00:15.231Z,3.77
2019-03-18T01:05:22.169Z,4.70
2019-03-18T01:10:28.891Z,4.30
2019-03-18T01:15:35.925Z,3.70
2019-03-18T01:20:41.759Z,3.03
2019-03-18T01:25:49.336Z,4.33
2019-03-18T01:30:56.062Z,2.97
2019-03-18T01:36:02.212Z,3.73
2019-03-18T01:41:09.479Z,3.80
2019-03-18T01:46:17.019Z,3.43
2019-03-18T01:51:23.052Z,4.20
2019-03-18T01:56:29.526Z,4.73
2019-03-18T02:01:35.767Z,5.03
2019-03-18T02:06:41.149Z,5.67
2019-03-18T02:11:46.229Z,5.77
2019-03-18T02:16:53.320Z,7.60
2019-03-18T02:22:00.109Z,8.37
2019-03-18T02:27:05.685Z,5.33
2019-03-18T02:32:11.140Z,5.90
2019-03-18T02:37:17.378Z,5.67
2019-03-18T02:42:23.488Z,7.77
2019-03-18T02:47:30.716Z,3.70
2019-03-18T02:52:36.411Z,5.03
2019-03-18T02:57:44.140Z,7.60
2019-03-18T03:02:49.874Z,5.60
2019-03-18T03:07:56.582Z,6.73
2019-03-18T03:13:02.274Z,6.80
2019-03-18T03:18:09.165Z,7.07
2019-03-18T03:23:15.773Z,6.87
2019-03-18T03:28:23.719Z,6.90
2019-03-18T03:33:30.015Z,7.90
2019-03-18T03:38:35.977Z,9.60
2019-03-18T03:43:42.430Z,8.43
2019-03-18T03:48:49.154Z,10.03
2019-03-18T03:53:56.793Z,9.70
2019-03-18T03:59:04.134Z,9.23
2019-03-18T04:04:09.561Z,9.47
2019-03-18T04:09:15.276Z,7.70
2019-03-18T04:14:22.582Z,6.33
2019-03-18T04:19:29.654Z,7.43
2019-03-18T04:24:35.022Z,7.93
2019-03-18T04:29:40.844Z,8.80
2019-03-18T04:34:46.584Z,6.93
2019-03-18T04:39:52.510Z,8.93
2019-03-18T04:44:58.522Z,10.43
2019-03-18T04:50:05.172Z,9.47
2019-03-18T04:55:10.305Z,9.33
2019-03-18T05:00:15.974Z,10.50
2019-03-18T05:05:22.160Z,11.23
2019-03-18T05:10:27.562Z,11.63
2019-03-18T05:15:33.848Z,12.67
2019-03-18T05:20:41.059Z,11.60
2019-03-18T05:25:49.081Z,11.80
2019-03-18T05:30:57.862Z,12.17
2019-03-18T05:36:05.153Z,13.17
2019-03-18T05:41:11.584Z,14.87
2019-03-18T05:46:17.358Z,15.23
2019-03-18T05:51:24.101Z,14.27
2019-03-18T05:56:31.137Z,13.87
2019-03-18T06:01:36.494Z,14.80
2019-03-18T06:06:43.392Z,18.50
2019-03-18T06:11:50.198Z,14.83
2019-03-18T06:16:57.200Z,13.57
2019-03-18T06:22:03.635Z,14.13
2019-03-18T06:27:11.378Z,12.43
2019-03-18T06:32:17.532Z,14.60
2019-03-18T06:37:25.946Z,13.50
2019-03-18T06:42:32.397Z,14.77
2019-03-18T06:47:38.758Z,15.17
2019-03-18T06:52:45.109Z,15.80
2019-03-18T06:57:50.508Z,15.80
2019-03-18T07:02:58.360Z,16.87
2019-03-18T07:08:04.339Z,17.47
2019-03-18T07:13:11.058Z,15.70
2019-03-18T07:18:18.947Z,15.30
2019-03-18T07:23:26.044Z,16.93
2019-03-18T07:28:32.945Z,20.00
2019-03-18T07:33:42.049Z,16.30
2019-03-18T07:38:47.577Z,18.20
2019-03-18T07:43:53.354Z,17.83
2019-03-18T07:48:59.644Z,16.87
2019-03-18T07:54:06.967Z,19.27
2019-03-18T07:59:14.156Z,16.63
2019-03-18T08:04:20.525Z,14.83
2019-03-18T08:09:27.242Z,13.07
2019-03-18T08:14:33.691Z,13.03
2019-03-18T08:19:39.937Z,13.40
2019-03-18T08:24:45.936Z,15.67
2019-03-18T08:29:52.840Z,14.70
2019-03-18T08:35:00.863Z,12.37
2019-03-18T08:40:08.542Z,13.90
2019-03-18T08:45:15.639Z,14.43
2019-03-18T08:50:22.552Z,10.73
2019-03-18T08:55:30.190Z,11.33
2019-03-18T09:00:36.062Z,10.37
2019-03-18T09:05:42.047Z,9.03
2019-03-18T09:10:49.068Z,12.10
2019-03-18T09:15:56.198Z,10.67
2019-03-18T09:21:03.008Z,9.93
2019-03-18T09:26:08.886Z,15.00
2019-03-18T09:31:16.092Z,15.53
2019-03-18T09:36:22.559Z,10.67
2019-03-18T09:41:28.908Z,10.80
2019-03-18T09:46:35.776Z,10.37
2019-03-18T09:51:41.468Z,6.23
2019-03-18T09:56:47.135Z,14.87
2019-03-18T10:01:54.861Z,10.50
2019-03-18T10:07:02.860Z,11.80
2019-03-18T10:12:08.511Z,11.17
2019-03-18T10:17:15.259Z,12.70
2019-03-18T10:22:21.561Z,10.57
2019-03-18T10:27:27.230Z,10.33
2019-03-18T10:32:34.030Z,9.00
2019-03-18T10:37:41.265Z,12.40
2019-03-18T10:42:47.881Z,8.90
2019-03-18T10:47:55.024Z,9.00
2019-03-18T10:53:01.185Z,7.83
2019-03-18T10:58:08.998Z,10.63
2019-03-18T11:03:16.088Z,13.03
2019-03-18T11:08:23.025Z,9.03
2019-03-18T11:13:29.321Z,14.17
2019-03-18T11:18:36.456Z,8.57
2019-03-18T11:23:43.311Z,9.80
2019-03-18T11:28:49.568Z,7.37
2019-03-18T11:33:56.981Z,7.53
2019-03-18T11:39:03.437Z,10.00
2019-03-18T11:44:08.837Z,6.73
2019-03-18T11:49:15.644Z,12.53
2019-03-18T11:54:21.978Z,8.40
2019-03-18T11:59:28.851Z,3.13
2019-03-18T12:04:35.658Z,6.53
2019-03-18T12:09:40.774Z,7.80
2019-03-18T12:14:47.257Z,6.23
2019-03-18T12:19:53.497Z,6.20
2019-03-18T12:24:58.950Z,5.77
2019-03-18T12:30:05.617Z,5.23
2019-03-18T12:35:11.942Z,8.70
2019-03-18T12:40:19.509Z,9.40
2019-03-18T12:45:27.002Z,6.40
2019-03-18T12:50:49.080Z,7.97
2019-03-18T12:55:42.314Z,8.17
2019-03-18T13:00:48.370Z,8.60
2019-03-18T13:05:55.021Z,6.50
2019-03-18T13:11:01.396Z,7.27
2019-03-18T13:16:08.909Z,8.93
2019-03-18T13:21:16.639Z,8.00
2019-03-18T13:26:22.970Z,10.13
2019-03-18T13:31:29.782Z,7.90
2019-03-18T13:36:37.069Z,4.27
2019-03-18T13:41:43.341Z,9.40
2019-03-18T13:46:49.808Z,6.03
2019-03-18T13:51:55.813Z,5.93
2019-03-18T13:57:03.046Z,7.07
2019-03-18T14:02:08.476Z,4.07
2019-03-18T14:07:13.733Z,5.40
2019-03-18T14:12:20.230Z,8.23
2019-03-18T14:17:28.530Z,8.97
2019-03-18T14:22:35.427Z,6.00
2019-03-18T14:27:41.210Z,6.07
2019-03-18T14:32:48.067Z,8.90
2019-03-18T14:37:54.755Z,6.40
2019-03-18T14:43:02.150Z,7.53
2019-03-18T14:48:07.867Z,7.80
2019-03-18T14:53:14.214Z,6.57
2019-03-18T14:58:20.163Z,8.13
2019-03-18T15:03:27.033Z,8.40
2019-03-18T15:08:32.575Z,9.80
2019-03-18T15:13:38.899Z,15.50
2019-03-18T15:18:45.175Z,11.10
2019-03-18T15:23:50.757Z,6.53
2019-03-18T15:28:57.581Z,8.47
2019-03-18T15:34:03.868Z,7.43
2019-03-18T15:39:10.379Z,9.37
2019-03-18T15:44:17.108Z,9.63
2019-03-18T15:49:24.895Z,8.17
2019-03-18T15:54:31.061Z,5.90
2019-03-18T15:59:38.967Z,6.97
2019-03-18T16:04:45.364Z,8.47
2019-03-18T16:09:51.491Z,4.93
2019-03-18T16:14:58.191Z,6.70
2019-03-18T16:20:04.953Z,8.47
2019-03-18T16:25:11.723Z,8.03
2019-03-18T16:30:18.449Z,7.67
2019-03-18T16:35:24.957Z,12.90
2019-03-18T16:40:32.261Z,7.77
2019-03-18T16:45:39.171Z,9.03
2019-03-18T16:57:19.227Z,7.60
2019-03-18T17:02:24.890Z,4.53
2019-03-18T17:07:29.935Z,7.63
2019-03-18T17:12:36.194Z,7.60
2019-03-18T17:17:42.349Z,6.73
2019-03-18T17:22:49.889Z,7.47
2019-03-18T17:27:56.498Z,7.13
2019-03-18T17:33:02.527Z,4.33
2019-03-18T17:38:09.077Z,7.73
2019-03-18T17:43:16.761Z,11.23
2019-03-18T17:48:23.693Z,5.43
2019-03-18T17:53:31.629Z,8.30
2019-03-18T17:58:36.932Z,8.83
2019-03-18T18:03:42.423Z,8.33
2019-03-18T18:08:48.467Z,6.57
2019-03-18T18:13:55.704Z,10.03
2019-03-18T18:19:03.148Z,5.77
2019-03-18T18:24:09.958Z,6.83
2019-03-18T18:29:15.789Z,10.00
2019-03-18T18:34:21.344Z,8.40
2019-03-18T18:39:27.401Z,6.03
2019-03-18T18:44:34.644Z,6.40
2019-03-18T18:49:40.505Z,5.27
2019-03-18T18:54:48.206Z,7.60
2019-03-18T18:59:53.715Z,8.27
2019-03-18T19:05:00.266Z,9.20
2019-03-18T19:10:06.925Z,8.57
2019-03-18T19:15:19.597Z,7.37
2019-03-18T19:20:25.451Z,6.53
2019-03-18T19:25:31.386Z,6.53
2019-03-18T19:30:37.560Z,6.33
2019-03-18T19:35:44.055Z,7.63
2019-03-18T19:40:50.426Z,6.97
2019-03-18T19:45:55.961Z,7.70
2019-03-18T19:51:02.311Z,6.53
2019-03-18T19:56:08.498Z,9.30
2019-03-18T20:01:14.852Z,6.37
2019-03-18T20:06:21.414Z,9.33
2019-03-18T20:11:27.844Z,8.53
2019-03-18T20:16:34.658Z,7.53
2019-03-18T20:21:41.441Z,8.17
2019-03-18T20:26:46.595Z,9.90
2019-03-18T20:31:52.659Z,11.37
2019-03-18T20:36:58.002Z,6.63
2019-03-18T20:42:03.247Z,9.30
2019-03-18T20:47:10.158Z,8.00
2019-03-18T20:52:17.236Z,9.50
2019-03-18T20:57:24.076Z,8.70
2019-03-18T21:02:30.428Z,9.80
2019-03-18T21:07:37.981Z,12.90
2019-03-18T21:12:44.047Z,7.83
2019-03-18T21:17:50.468Z,6.73
2019-03-18T21:22:57.880Z,8.27
2019-03-18T21:28:05.282Z,10.13
2019-03-18T21:33:11.434Z,8.23
2019-03-18T21:38:18.636Z,7.20
2019-03-18T21:43:26.386Z,11.03
2019-03-18T21:48:33.209Z,9.10
2019-03-18T21:53:42.148Z,7.93
2019-03-18T21:58:48.840Z,7.57
2019-03-18T22:03:55.333Z,8.93
2019-03-18T23:51:23.900Z,8.33
2019-03-18T23:57:28.981Z,13.70
